KSLB

Storm Lake Municipal Airport

Storm Lake, Iowa, USA
METAR KSLB 250515Z AUTO 17012KT 10SM CLR 22/18 A2992 RMK AO2
Observed Flight Rules
May-25 @ 05:15 UTC (13 minutes ago) Visual Flight Rules
Wind Visibility Clouds
170° at 12 knots 10 miles
  • Clear skies
Temperatures Readings
Current 22°C / 72°F
Dewpoint 18°C / 64°F
Humidity 78%
Altimeter 29.92" Hg
Pressure 1013 hPa
Elevation 454
METAR KSLB 250515Z AUTO 17012KT 10SM CLR 22/18 A2992 RMK AO2
Observed Flight Rules
May-25 @ 05:15 UTC
(13 minutes ago)
VFR
Wind Visibility
170° at 12 knots 10 miles
Clouds
  • Clear skies
Temperature Dewpoint
22°C / 72°F 18°C / 64°F
Humidity Altimeter Pressure
78% 29.92" Hg 1013 hPa